Time;durP1;ratioP1;P1;durP2;ratioP2;P2;SDS_P1;SDS_P2;PMS_P1;PMS_P2;Temp;Humidity;BMP_temperature;BMP_pressure;BME280_temperature;BME280_humidity;BME280_pressure;Samples;Min_cycle;Max_cycle;Signal;HPM_P1;HPM_P2
2023/01/30 00:01:15;;;;;;;8.20;5.85;;;-2.60;99.90;;;;;;4914398;29;20217;-67
2023/01/30 00:03:41;;;;;;;7.35;5.90;;;-2.60;99.90;;;;;;4914282;29;20228;-64
2023/01/30 00:06:10;;;;;;;8.52;4.78;;;-2.60;99.90;;;;;;4915167;29;20688;-66
2023/01/30 00:08:37;;;;;;;7.68;5.28;;;-2.60;99.90;;;;;;4914131;29;20210;-66
2023/01/30 00:11:05;;;;;;;12.30;5.35;;;-2.60;99.90;;;;;;4914222;29;20213;-67
2023/01/30 00:13:32;;;;;;;6.03;4.43;;;-2.60;99.90;;;;;;4914696;29;20221;-66
2023/01/30 00:15:58;;;;;;;6.28;4.35;;;-2.60;99.90;;;;;;4913746;29;20225;-66
2023/01/30 00:18:25;;;;;;;7.78;4.90;;;-2.50;99.90;;;;;;4914219;29;20221;-66
2023/01/30 00:20:56;;;;;;;9.65;5.97;;;-2.50;99.90;;;;;;4914161;29;20295;-67
2023/01/30 00:23:25;;;;;;;8.93;5.57;;;-2.60;99.90;;;;;;4914749;29;20213;-66
2023/01/30 00:25:51;;;;;;;9.68;5.63;;;-2.60;99.90;;;;;;4914217;29;20244;-66
2023/01/30 00:28:18;;;;;;;7.88;4.93;;;-2.50;99.90;;;;;;4913036;29;20209;-66
2023/01/30 00:30:48;;;;;;;9.40;5.93;;;-2.50;99.90;;;;;;4914340;29;20206;-66
2023/01/30 00:33:14;;;;;;;10.30;5.43;;;-2.50;99.90;;;;;;4913822;29;20213;-66
2023/01/30 00:35:43;;;;;;;9.07;5.72;;;-2.50;99.90;;;;;;4914286;29;20236;-66
2023/01/30 00:38:10;;;;;;;11.95;5.63;;;-2.50;99.90;;;;;;4913855;29;20206;-66
2023/01/30 00:40:38;;;;;;;6.47;4.97;;;-2.50;99.90;;;;;;4913035;29;20209;-66
2023/01/30 00:48:36;;;;;;;5.90;4.70;;;-2.50;99.90;;;;;;4914621;29;20204;-66
2023/01/30 00:51:03;;;;;;;9.60;6.10;;;-2.40;99.90;;;;;;4914843;29;20209;-66
2023/01/30 00:53:30;;;;;;;9.43;5.38;;;-2.40;99.90;;;;;;4915166;29;20228;-67
2023/01/30 00:55:58;;;;;;;7.80;5.53;;;-2.40;99.90;;;;;;4914676;29;20230;-66
2023/01/30 00:58:25;;;;;;;8.18;5.40;;;-2.50;99.90;;;;;;4914168;29;20209;-66
2023/01/30 01:00:52;;;;;;;9.15;5.55;;;-2.50;99.90;;;;;;4914754;29;20212;-65
2023/01/30 01:03:19;;;;;;;6.70;5.25;;;-2.40;99.90;;;;;;4914689;29;20270;-66
2023/01/30 01:05:46;;;;;;;7.55;5.18;;;-2.40;99.90;;;;;;4915003;29;20228;-66
2023/01/30 01:08:13;;;;;;;10.02;6.75;;;-2.40;99.90;;;;;;4914394;29;20233;-65
2023/01/30 01:10:40;;;;;;;11.10;5.70;;;-2.50;99.90;;;;;;4914617;29;20296;-66
2023/01/30 01:13:09;;;;;;;7.60;5.15;;;-2.50;99.90;;;;;;4914795;29;20221;-66
2023/01/30 01:15:36;;;;;;;6.57;5.03;;;-2.50;99.90;;;;;;4914086;29;20727;-66
2023/01/30 01:18:03;;;;;;;10.02;6.00;;;-2.50;99.90;;;;;;4914376;29;20202;-66
2023/01/30 01:20:30;;;;;;;6.78;4.45;;;-2.50;99.90;;;;;;4913807;29;20324;-65
2023/01/30 01:22:57;;;;;;;12.07;6.53;;;-2.50;99.90;;;;;;4913852;29;20209;-66
2023/01/30 01:25:24;;;;;;;7.18;5.05;;;-2.50;99.90;;;;;;4914399;29;20225;-66
2023/01/30 01:27:51;;;;;;;8.65;5.00;;;-2.60;99.90;;;;;;4914163;29;20225;-66
2023/01/30 01:30:19;;;;;;;8.75;5.20;;;-2.60;99.90;;;;;;4914009;29;20202;-66
2023/01/30 01:32:46;;;;;;;6.90;4.90;;;-2.50;99.90;;;;;;4913863;29;20205;-65
2023/01/30 01:35:13;;;;;;;10.00;4.65;;;-2.60;99.90;;;;;;4914201;29;20222;-66
2023/01/30 01:37:39;;;;;;;9.02;5.78;;;-2.60;99.90;;;;;;4913878;29;20213;-66
2023/01/30 01:42:52;;;;;;;11.55;5.97;;;-2.70;99.90;;;;;;4914182;29;20286;-66
2023/01/30 01:45:21;;;;;;;7.95;5.18;;;-2.70;99.90;;;;;;4913871;29;20714;-66
2023/01/30 01:47:58;;;;;;;8.63;5.25;;;-2.70;99.90;;;;;;4914091;29;20233;-66
2023/01/30 01:50:29;;;;;;;9.90;5.90;;;-2.70;99.90;;;;;;4913370;29;20212;-66
2023/01/30 01:53:00;;;;;;;8.18;5.15;;;-2.80;99.90;;;;;;4913957;29;20206;-66
2023/01/30 01:55:28;;;;;;;11.10;6.30;;;-2.90;99.90;;;;;;4913896;29;20230;-66
2023/01/30 01:57:58;;;;;;;7.28;5.50;;;-2.90;99.90;;;;;;4913906;29;20245;-66
2023/01/30 02:00:26;;;;;;;9.10;5.65;;;-2.90;99.90;;;;;;4913545;29;20205;-66
2023/01/30 02:02:57;;;;;;;10.10;6.18;;;-3.00;99.90;;;;;;4913517;29;20206;-66
2023/01/30 02:05:25;;;;;;;10.10;6.32;;;-2.90;99.90;;;;;;4914072;29;20229;-66
2023/01/30 02:08:00;;;;;;;9.05;5.50;;;-2.90;99.90;;;;;;4913291;29;20225;-66
2023/01/30 02:10:35;;;;;;;8.73;4.88;;;-3.00;99.90;;;;;;4913546;29;20241;-66
2023/01/30 02:13:01;;;;;;;7.15;5.75;;;-3.00;99.90;;;;;;4913369;29;20216;-66
2023/01/30 02:15:29;;;;;;;12.95;5.90;;;-2.90;99.90;;;;;;4913917;29;20232;-66
2023/01/30 02:17:56;;;;;;;8.10;4.85;;;-2.90;99.90;;;;;;4913493;29;20206;-66
2023/01/30 02:20:31;;;;;;;9.75;4.90;;;-2.90;99.90;;;;;;4913271;29;20206;-66
2023/01/30 02:23:27;;;;;;;7.35;4.97;;;-2.80;99.90;;;;;;4913852;29;20209;-65
2023/01/30 02:26:15;;;;;;;8.75;5.32;;;-2.80;99.90;;;;;;4913178;29;20731;-66
2023/01/30 02:29:23;;;;;;;5.70;4.20;;;-2.90;99.90;;;;;;5108463;23;20236;-66
2023/01/30 02:31:57;;;;;;;7.10;4.70;;;-2.90;99.90;;;;;;4964649;28;20211;-66
2023/01/30 02:34:43;;;;;;;7.35;4.85;;;-3.00;99.90;;;;;;4971392;28;20496;-66
2023/01/30 02:37:17;;;;;;;8.90;5.10;;;-3.10;99.90;;;;;;4974374;28;20219;-66
2023/01/30 02:40:00;;;;;;;5.65;4.75;;;-3.10;99.90;;;;;;4974273;28;20203;-66
2023/01/30 02:42:34;;;;;;;8.45;4.93;;;-3.20;99.90;;;;;;4974639;28;20203;-66
2023/01/30 02:45:06;;;;;;;8.98;5.88;;;-3.20;99.90;;;;;;4974456;28;20211;-66
2023/01/30 02:47:39;;;;;;;9.48;5.30;;;-3.20;99.90;;;;;;4974295;28;20234;-66
2023/01/30 02:50:12;;;;;;;8.45;5.30;;;-3.20;99.90;;;;;;4974107;28;20204;-66
2023/01/30 02:52:40;;;;;;;5.75;4.95;;;-3.20;99.90;;;;;;4974511;28;20200;-66
2023/01/30 02:55:09;;;;;;;6.47;4.65;;;-3.30;99.90;;;;;;4974072;28;20212;-66
2023/01/30 02:57:36;;;;;;;7.57;5.13;;;-3.30;99.90;;;;;;4974663;28;20223;-66
2023/01/30 03:00:06;;;;;;;9.95;5.60;;;-3.20;99.90;;;;;;4973415;28;20215;-65
2023/01/30 03:03:06;;;;;;;8.82;5.30;;;-3.20;99.90;;;;;;4974339;28;20668;-66
2023/01/30 03:05:45;;;;;;;12.43;5.75;;;-3.20;99.90;;;;;;4974036;28;20220;-66
2023/01/30 03:08:23;;;;;;;7.00;4.90;;;-3.20;99.90;;;;;;4973915;28;20223;-66
2023/01/30 03:10:54;;;;;;;4.75;3.85;;;-3.10;99.90;;;;;;4974318;28;20218;-65
2023/01/30 03:13:29;;;;;;;9.70;5.43;;;-3.10;99.90;;;;;;4974809;28;20211;-67
2023/01/30 03:15:59;;;;;;;9.25;5.35;;;-3.10;99.90;;;;;;4973715;28;20722;-66
2023/01/30 03:18:28;;;;;;;8.57;4.75;;;-3.20;99.90;;;;;;4973712;28;20196;-65
2023/01/30 03:20:55;;;;;;;8.13;5.13;;;-3.30;99.90;;;;;;4974173;28;20208;-65
2023/01/30 03:23:21;;;;;;;7.95;5.88;;;-3.30;99.90;;;;;;4973921;28;20219;-65
2023/01/30 03:25:49;;;;;;;6.78;5.03;;;-3.30;99.90;;;;;;4973837;28;20235;-65
2023/01/30 03:28:19;;;;;;;8.23;5.60;;;-3.20;99.90;;;;;;4973199;28;20234;-66
2023/01/30 03:30:46;;;;;;;8.90;4.60;;;-3.10;99.90;;;;;;4973838;28;20215;-66
2023/01/30 03:33:13;;;;;;;9.38;5.15;;;-3.10;99.90;;;;;;4973548;28;20578;-67
2023/01/30 03:35:42;;;;;;;12.40;5.57;;;-3.10;99.90;;;;;;4973866;28;20290;-67
2023/01/30 03:38:09;;;;;;;6.45;4.22;;;-3.00;99.90;;;;;;4973347;28;20235;-66
2023/01/30 03:40:35;;;;;;;8.30;5.22;;;-2.90;99.90;;;;;;4973193;28;20211;-67
2023/01/30 03:43:02;;;;;;;6.72;5.07;;;-2.80;99.90;;;;;;4973494;28;20573;-66
2023/01/30 03:45:29;;;;;;;9.13;5.28;;;-2.70;99.90;;;;;;4972685;28;20220;-66
2023/01/30 03:47:55;;;;;;;5.47;5.00;;;-2.70;99.90;;;;;;4973308;28;20599;-65
2023/01/30 03:50:22;;;;;;;8.43;4.88;;;-2.70;99.90;;;;;;4972911;28;20208;-66
2023/01/30 03:52:50;;;;;;;9.93;5.00;;;-2.60;99.90;;;;;;4973394;28;20212;-66
2023/01/30 03:55:17;;;;;;;8.98;4.82;;;-2.60;99.90;;;;;;4973404;28;20591;-66
2023/01/30 03:57:43;;;;;;;7.20;5.18;;;-2.60;99.90;;;;;;4973044;28;20211;-66
2023/01/30 04:00:11;;;;;;;13.88;5.45;;;-2.60;99.90;;;;;;4972633;28;20214;-66
2023/01/30 04:02:38;;;;;;;5.53;4.13;;;-2.60;99.90;;;;;;4973031;28;20204;-66
2023/01/30 04:05:05;;;;;;;8.07;5.20;;;-2.60;99.90;;;;;;4973224;28;20568;-66
2023/01/30 04:07:32;;;;;;;7.75;5.05;;;-2.60;99.90;;;;;;4973155;28;20714;-66
2023/01/30 04:10:00;;;;;;;12.02;6.15;;;-2.60;99.90;;;;;;4972348;28;20207;-66
2023/01/30 04:12:27;;;;;;;6.03;4.70;;;-2.50;99.90;;;;;;4973141;28;20204;-66
2023/01/30 04:14:53;;;;;;;7.35;5.35;;;-2.50;99.90;;;;;;4972370;28;20203;-66
2023/01/30 04:17:20;;;;;;;5.43;4.30;;;-2.50;99.90;;;;;;4973191;28;20200;-65
2023/01/30 04:19:47;;;;;;;8.73;4.10;;;-2.30;99.90;;;;;;4972175;28;20204;-65
2023/01/30 04:22:14;;;;;;;8.43;4.10;;;-2.30;99.90;;;;;;4972731;28;20230;-64
2023/01/30 04:24:40;;;;;;;11.27;4.95;;;-2.20;99.90;;;;;;4972779;28;20202;-65
2023/01/30 04:27:09;;;;;;;8.70;5.57;;;-2.20;99.90;;;;;;4972246;28;20224;-66
2023/01/30 04:29:35;;;;;;;7.07;4.68;;;-2.10;99.90;;;;;;4972180;28;20259;-66
2023/01/30 04:32:02;;;;;;;8.43;5.75;;;-2.00;99.90;;;;;;4972410;28;20314;-66
2023/01/30 04:34:29;;;;;;;7.75;5.00;;;-2.00;99.90;;;;;;4972107;28;20196;-66
2023/01/30 04:36:55;;;;;;;7.70;4.72;;;-2.00;99.90;;;;;;4970904;28;20220;-66
2023/01/30 04:39:22;;;;;;;6.43;4.15;;;-2.00;99.90;;;;;;4971087;28;20203;-66
2023/01/30 04:41:49;;;;;;;7.60;5.13;;;-2.00;99.90;;;;;;4971235;28;20203;-66
2023/01/30 04:44:17;;;;;;;7.00;4.18;;;-2.00;99.90;;;;;;4971073;28;20218;-65
2023/01/30 04:46:43;;;;;;;9.57;4.93;;;-2.00;99.90;;;;;;4971171;28;20220;-66
2023/01/30 04:49:10;;;;;;;7.43;4.65;;;-2.00;99.90;;;;;;4967528;28;20581;-66
2023/01/30 04:51:37;;;;;;;8.35;3.97;;;-1.90;99.90;;;;;;4971181;28;20196;-66
2023/01/30 04:54:06;;;;;;;5.85;3.70;;;-1.90;99.90;;;;;;4970837;28;20304;-66
2023/01/30 04:56:33;;;;;;;5.57;4.25;;;-1.80;99.90;;;;;;4969028;28;20247;-66
2023/01/30 04:59:00;;;;;;;5.90;4.75;;;-1.80;99.90;;;;;;4969020;28;20192;-66
2023/01/30 05:01:31;;;;;;;6.95;4.05;;;-1.80;99.90;;;;;;4971109;28;20200;-65
2023/01/30 05:03:58;;;;;;;6.25;4.15;;;-1.70;99.90;;;;;;4970579;28;20566;-65
2023/01/30 05:06:25;;;;;;;4.05;3.65;;;-1.70;99.90;;;;;;4970585;28;20224;-65
2023/01/30 05:08:53;;;;;;;5.10;3.63;;;-1.70;99.90;;;;;;4970625;28;20218;-64
2023/01/30 05:11:20;;;;;;;12.30;5.07;;;-1.60;99.90;;;;;;4970809;28;20192;-65
2023/01/30 05:13:48;;;;;;;4.72;3.92;;;-1.60;99.90;;;;;;4971222;28;20199;-65
2023/01/30 05:16:17;;;;;;;5.45;3.55;;;-1.60;99.90;;;;;;4971004;28;20222;-65
2023/01/30 05:18:46;;;;;;;6.22;4.30;;;-1.50;99.90;;;;;;4970967;28;20199;-66
2023/01/30 05:21:14;;;;;;;7.28;4.18;;;-1.60;99.90;;;;;;4971593;28;20196;-66
2023/01/30 05:23:41;;;;;;;6.40;4.18;;;-1.60;99.90;;;;;;4971977;28;20203;-66
2023/01/30 05:26:08;;;;;;;6.63;4.05;;;-1.60;99.90;;;;;;4971202;28;20233;-67
2023/01/30 05:28:35;;;;;;;6.38;4.47;;;-1.60;99.90;;;;;;4968338;28;20223;-64
2023/01/30 05:31:02;;;;;;;5.95;4.50;;;-1.50;99.90;;;;;;4972014;28;20207;-65
2023/01/30 05:33:29;;;;;;;7.35;5.20;;;-1.50;99.90;;;;;;4969211;28;20211;-64
2023/01/30 05:35:58;;;;;;;7.55;4.55;;;-1.40;99.90;;;;;;4968889;28;20917;-65
2023/01/30 05:38:24;;;;;;;4.30;3.55;;;-1.40;99.90;;;;;;4968481;28;20204;-64
2023/01/30 05:40:59;;;;;;;6.05;4.57;;;-1.40;99.90;;;;;;4969134;28;20213;-65
2023/01/30 05:43:26;;;;;;;4.95;4.47;;;-1.40;99.90;;;;;;4968907;28;20203;-66
2023/01/30 05:45:53;;;;;;;7.88;5.15;;;-1.40;99.90;;;;;;4968918;28;20223;-65
2023/01/30 05:48:20;;;;;;;8.68;4.95;;;-1.30;99.90;;;;;;4969706;28;20262;-64
2023/01/30 05:50:47;;;;;;;4.50;4.00;;;-1.30;99.90;;;;;;4971941;28;20227;-65
2023/01/30 05:53:15;;;;;;;6.45;3.63;;;-1.30;99.90;;;;;;4971575;28;20210;-64
2023/01/30 05:55:43;;;;;;;9.43;4.40;;;-1.20;99.90;;;;;;4971420;28;20223;-64
2023/01/30 05:58:10;;;;;;;6.28;4.25;;;-1.20;99.90;;;;;;4971006;28;20208;-65
2023/01/30 06:00:36;;;;;;;8.25;4.88;;;-1.20;99.90;;;;;;4971238;28;20586;-65
2023/01/30 06:03:03;;;;;;;4.90;4.45;;;-1.20;99.90;;;;;;4971455;28;20204;-65
2023/01/30 06:05:30;;;;;;;7.25;4.68;;;-1.20;99.90;;;;;;4971312;28;20234;-66
2023/01/30 06:07:57;;;;;;;5.63;4.93;;;-1.20;99.90;;;;;;4971320;28;20220;-65
2023/01/30 06:10:25;;;;;;;6.25;4.88;;;-1.20;99.90;;;;;;4974064;28;20876;-66
2023/01/30 06:12:51;;;;;;;6.63;4.07;;;-1.20;99.90;;;;;;4975170;28;20207;-65
2023/01/30 06:15:18;;;;;;;5.15;3.88;;;-1.20;99.90;;;;;;4975045;28;20842;-65
2023/01/30 06:17:45;;;;;;;7.63;4.53;;;-1.20;99.90;;;;;;5032354;23;20227;-66
2023/01/30 06:20:12;;;;;;;7.72;3.85;;;-1.20;99.90;;;;;;4955074;29;20200;-66
2023/01/30 06:22:39;;;;;;;6.78;3.42;;;-1.30;99.90;;;;;;4955736;29;20204;-65
2023/01/30 06:25:06;;;;;;;7.00;3.92;;;-1.30;99.90;;;;;;4955513;29;20200;-65
2023/01/30 06:27:34;;;;;;;5.50;3.72;;;-1.40;99.90;;;;;;4955689;29;20568;-65
2023/01/30 06:30:01;;;;;;;7.13;4.35;;;-1.40;99.90;;;;;;4954977;29;20224;-64
2023/01/30 06:32:27;;;;;;;7.68;5.38;;;-1.40;99.90;;;;;;4955331;29;20219;-65
2023/01/30 06:34:54;;;;;;;6.75;3.53;;;-1.40;99.90;;;;;;4955419;29;20208;-65
2023/01/30 06:37:21;;;;;;;5.65;4.47;;;-1.40;99.90;;;;;;4955543;29;20204;-65
2023/01/30 06:39:47;;;;;;;5.95;4.30;;;-1.40;99.90;;;;;;4955182;29;20563;-65
2023/01/30 06:42:14;;;;;;;8.73;4.82;;;-1.30;99.90;;;;;;4955962;29;20220;-65
2023/01/30 06:44:42;;;;;;;7.90;4.40;;;-1.20;99.90;;;;;;4956083;29;20218;-65
2023/01/30 06:47:09;;;;;;;6.43;3.60;;;-1.20;99.90;;;;;;4955593;29;20239;-65
2023/01/30 06:49:36;;;;;;;10.35;4.80;;;-1.10;99.90;;;;;;4954711;29;20595;-64
2023/01/30 06:52:02;;;;;;;4.63;3.80;;;-1.10;99.90;;;;;;4955092;29;20227;-65
2023/01/30 06:54:29;;;;;;;4.35;3.28;;;-1.10;99.90;;;;;;4955330;29;20211;-65
2023/01/30 06:56:56;;;;;;;6.90;3.72;;;-1.20;99.90;;;;;;4954879;29;20228;-65
2023/01/30 06:59:22;;;;;;;6.32;4.45;;;-1.20;99.90;;;;;;4954652;29;20211;-64
2023/01/30 07:01:50;;;;;;;4.32;3.83;;;-1.20;99.90;;;;;;4954912;29;20205;-65
2023/01/30 07:04:17;;;;;;;5.93;4.72;;;-1.10;99.90;;;;;;4955080;29;20231;-65
2023/01/30 07:06:45;;;;;;;7.97;4.40;;;-1.20;99.90;;;;;;4954824;29;20235;-65
2023/01/30 07:09:12;;;;;;;8.48;4.50;;;-1.10;99.90;;;;;;4954489;29;20264;-65
2023/01/30 07:11:39;;;;;;;4.05;3.40;;;-1.10;99.90;;;;;;4954562;29;20204;-65
2023/01/30 07:14:05;;;;;;;9.75;4.10;;;-1.10;99.90;;;;;;4954844;29;20200;-64
2023/01/30 07:16:32;;;;;;;5.40;3.65;;;-1.10;99.90;;;;;;4954314;29;20236;-65
2023/01/30 07:19:00;;;;;;;6.25;4.95;;;-1.00;99.90;;;;;;4954076;29;20594;-66
2023/01/30 07:21:27;;;;;;;8.38;4.15;;;-1.00;99.90;;;;;;4953682;28;20204;-65
2023/01/30 07:23:54;;;;;;;6.45;4.47;;;-1.00;99.90;;;;;;4954702;29;20197;-65
2023/01/30 07:26:21;;;;;;;6.93;4.15;;;-1.00;99.90;;;;;;4954633;29;20719;-65
2023/01/30 07:28:48;;;;;;;7.90;4.25;;;-0.90;99.90;;;;;;4953877;29;20243;-66
2023/01/30 07:31:14;;;;;;;4.10;3.72;;;-0.90;99.90;;;;;;4954459;29;20215;-65
2023/01/30 07:33:41;;;;;;;5.07;3.47;;;-0.80;99.90;;;;;;4954237;29;20592;-66
2023/01/30 07:36:09;;;;;;;7.85;4.50;;;-0.80;99.90;;;;;;4954309;29;20372;-65
2023/01/30 07:38:36;;;;;;;7.13;3.70;;;-0.80;99.90;;;;;;4953843;29;20207;-66
2023/01/30 07:41:03;;;;;;;6.50;3.67;;;-0.70;99.90;;;;;;4954484;29;20216;-65
2023/01/30 07:43:29;;;;;;;4.15;3.75;;;-0.70;99.90;;;;;;4954410;29;20618;-66
2023/01/30 07:45:56;;;;;;;5.30;3.40;;;-0.60;99.90;;;;;;4954310;29;20247;-65
2023/01/30 07:48:23;;;;;;;4.75;3.78;;;-0.50;99.90;;;;;;4954038;29;20209;-66
2023/01/30 07:50:50;;;;;;;5.95;4.13;;;-0.50;99.90;;;;;;4954390;29;20395;-65
2023/01/30 07:53:18;;;;;;;5.88;4.00;;;-0.40;99.90;;;;;;4954299;29;20212;-65
2023/01/30 07:55:45;;;;;;;3.83;3.30;;;-0.40;99.90;;;;;;4953932;29;20248;-65
2023/01/30 07:58:13;;;;;;;4.97;3.90;;;-0.30;99.90;;;;;;4954082;29;20212;-65
2023/01/30 08:00:40;;;;;;;5.40;3.58;;;-0.30;99.90;;;;;;4953953;29;20239;-65
2023/01/30 08:03:12;;;;;;;4.53;3.53;;;-0.30;99.90;;;;;;4954128;29;20204;-64
2023/01/30 08:05:38;;;;;;;6.47;4.22;;;-0.40;99.90;;;;;;4953945;29;20594;-65
2023/01/30 08:08:05;;;;;;;4.15;3.17;;;-0.30;99.90;;;;;;4954077;29;20204;-65
2023/01/30 08:10:33;;;;;;;5.35;4.07;;;-0.20;99.90;;;;;;4953105;29;20735;-65
2023/01/30 08:13:00;;;;;;;5.15;3.70;;;-0.10;99.90;;;;;;4953872;29;20212;-65
2023/01/30 08:15:26;;;;;;;4.68;3.47;;;0.00;99.90;;;;;;4954002;29;20228;-65
2023/01/30 08:17:55;;;;;;;4.75;3.53;;;0.10;99.90;;;;;;4953083;29;20208;-65
2023/01/30 08:20:21;;;;;;;4.90;3.70;;;0.10;99.90;;;;;;4953427;29;20232;-65
2023/01/30 08:22:48;;;;;;;6.80;4.47;;;0.10;99.90;;;;;;4953348;29;20200;-64
2023/01/30 08:25:15;;;;;;;4.57;3.38;;;0.10;99.90;;;;;;4953490;29;20246;-65
2023/01/30 08:27:43;;;;;;;4.05;3.67;;;0.10;99.90;;;;;;4953432;29;20223;-65
2023/01/30 08:30:11;;;;;;;4.35;3.83;;;0.00;99.90;;;;;;4952963;29;20633;-66
2023/01/30 08:32:38;;;;;;;5.88;4.45;;;0.00;99.90;;;;;;4952968;28;20216;-65
2023/01/30 08:35:05;;;;;;;5.80;4.13;;;0.10;99.90;;;;;;4953280;29;20404;-65
2023/01/30 08:37:32;;;;;;;4.90;3.28;;;0.10;99.90;;;;;;4953594;29;20204;-66
2023/01/30 08:39:59;;;;;;;7.25;4.13;;;0.10;99.90;;;;;;4952636;29;20692;-65
2023/01/30 08:42:25;;;;;;;6.63;4.55;;;0.10;99.90;;;;;;4953532;29;20208;-65
2023/01/30 08:44:53;;;;;;;6.82;4.45;;;0.20;99.90;;;;;;4952911;29;20702;-66
2023/01/30 08:47:20;;;;;;;5.63;3.90;;;0.30;99.90;;;;;;4953070;29;20200;-65
2023/01/30 08:49:47;;;;;;;3.58;3.05;;;0.50;99.90;;;;;;4952226;29;20597;-66
2023/01/30 08:52:14;;;;;;;4.78;3.95;;;0.90;99.90;;;;;;4953034;29;20214;-66
2023/01/30 08:54:40;;;;;;;9.07;5.15;;;1.60;99.90;;;;;;4953133;29;20228;-66
2023/01/30 08:57:07;;;;;;;5.43;3.25;;;2.00;99.90;;;;;;4953118;29;20240;-65
2023/01/30 08:59:34;;;;;;;5.28;3.90;;;2.10;99.90;;;;;;4952729;29;20573;-68
2023/01/30 09:02:02;;;;;;;4.07;3.65;;;2.00;99.90;;;;;;4952954;29;20207;-63
2023/01/30 09:04:29;;;;;;;3.53;2.85;;;2.10;99.90;;;;;;4953437;29;20205;-66
2023/01/30 09:06:56;;;;;;;5.28;4.07;;;2.40;99.90;;;;;;4952530;29;20601;-65
2023/01/30 09:09:23;;;;;;;5.72;4.30;;;3.10;99.90;;;;;;4952823;29;20224;-63
2023/01/30 09:11:50;;;;;;;4.85;3.20;;;3.90;99.90;;;;;;4952740;29;20689;-63
2023/01/30 09:14:18;;;;;;;5.43;4.10;;;4.70;99.90;;;;;;4953035;29;20668;-66
2023/01/30 09:16:45;;;;;;;5.32;3.70;;;5.50;99.90;;;;;;4952721;29;20227;-66
2023/01/30 09:19:13;;;;;;;6.22;3.92;;;6.80;99.90;;;;;;4952184;29;20216;-65
2023/01/30 09:21:40;;;;;;;5.45;3.85;;;8.00;99.90;;;;;;4952761;29;20701;-67
2023/01/30 09:24:07;;;;;;;5.63;4.07;;;8.70;99.90;;;;;;4952288;29;20212;-64
2023/01/30 09:26:34;;;;;;;5.10;3.72;;;8.90;99.90;;;;;;4952909;29;20220;-66
2023/01/30 09:29:00;;;;;;;3.80;3.40;;;9.50;99.90;;;;;;4952421;29;20223;-64
2023/01/30 09:31:27;;;;;;;4.45;3.75;;;8.80;99.90;;;;;;4952912;29;20207;-63
2023/01/30 09:33:54;;;;;;;3.50;3.10;;;8.10;99.90;;;;;;4952576;29;20231;-64
2023/01/30 09:36:22;;;;;;;3.58;3.28;;;6.80;99.90;;;;;;4952925;29;20224;-64
2023/01/30 09:38:48;;;;;;;4.03;3.05;;;5.60;99.90;;;;;;4952195;29;20212;-65
2023/01/30 09:41:35;;;;;;;7.43;3.35;;;4.40;99.90;;;;;;4945318;29;20671;-65
2023/01/30 09:44:18;;;;;;;3.42;2.65;;;3.60;99.90;;;;;;4951357;28;20230;-65
2023/01/30 09:46:52;;;;;;;5.50;3.20;;;3.40;99.90;;;;;;4951717;29;20228;-65
2023/01/30 09:49:32;;;;;;;2.78;2.10;;;3.00;99.90;;;;;;4952169;29;20230;-64
2023/01/30 09:52:08;;;;;;;3.83;3.00;;;2.90;99.90;;;;;;4952227;29;20200;-65
2023/01/30 09:54:37;;;;;;;4.72;2.70;;;2.70;99.90;;;;;;4951964;29;20289;-66
2023/01/30 09:57:20;;;;;;;4.05;3.38;;;2.50;99.90;;;;;;4952915;29;20843;-65
2023/01/30 09:59:55;;;;;;;3.63;2.67;;;2.40;99.90;;;;;;4951276;29;20204;-66
2023/01/30 10:02:39;;;;;;;4.68;3.30;;;2.30;99.90;;;;;;4952450;29;20298;-65
2023/01/30 10:05:06;;;;;;;7.10;3.25;;;2.30;99.90;;;;;;4951689;29;20208;-66
2023/01/30 10:08:00;;;;;;;6.45;2.83;;;2.30;99.90;;;;;;4949107;29;20223;-65
2023/01/30 10:10:40;;;;;;;2.97;2.70;;;2.40;99.90;;;;;;4936328;29;20236;-65
2023/01/30 10:13:25;;;;;;;3.47;2.55;;;2.50;99.90;;;;;;4949411;29;20205;-65
2023/01/30 10:15:56;;;;;;;4.22;2.47;;;2.60;99.90;;;;;;4948983;29;20235;-64
2023/01/30 10:18:46;;;;;;;3.78;2.38;;;2.70;99.90;;;;;;4948830;29;20212;-65
2023/01/30 10:21:25;;;;;;;4.70;3.10;;;2.80;99.90;;;;;;4948229;29;20664;-65
2023/01/30 10:24:07;;;;;;;2.38;2.17;;;2.90;99.90;;;;;;4949108;29;20220;-65
2023/01/30 10:26:34;;;;;;;3.15;2.83;;;3.10;99.90;;;;;;4949384;29;20334;-65
2023/01/30 10:29:06;;;;;;;2.92;2.10;;;3.30;99.90;;;;;;4949378;29;20574;-64
2023/01/30 10:31:40;;;;;;;2.33;2.15;;;3.40;99.90;;;;;;4950240;29;20271;-65
2023/01/30 10:34:11;;;;;;;2.70;2.33;;;3.70;99.90;;;;;;4949893;29;20684;-65
2023/01/30 10:36:43;;;;;;;2.55;2.17;;;3.90;99.90;;;;;;4948368;29;20221;-65
2023/01/30 10:39:21;;;;;;;2.22;2.00;;;4.00;99.90;;;;;;4948607;29;20204;-65
2023/01/30 10:41:55;;;;;;;3.92;2.28;;;4.10;99.90;;;;;;4948779;29;20207;-65
2023/01/30 10:44:23;;;;;;;3.60;2.30;;;3.80;99.90;;;;;;4948833;29;20215;-64
2023/01/30 10:47:17;;;;;;;3.25;2.00;;;3.60;99.90;;;;;;4948264;29;20232;-65
2023/01/30 10:49:47;;;;;;;2.05;1.65;;;3.50;99.90;;;;;;4942727;29;20607;-66
2023/01/30 10:52:27;;;;;;;1.77;1.65;;;3.40;99.90;;;;;;4948968;29;20672;-64
2023/01/30 10:55:04;;;;;;;2.00;1.80;;;3.40;99.90;;;;;;4948556;28;20262;-65
2023/01/30 10:57:43;;;;;;;2.50;1.73;;;3.30;99.90;;;;;;4951923;29;20215;-65
2023/01/30 11:00:19;;;;;;;2.13;1.73;;;3.30;99.90;;;;;;4952521;29;20349;-65
2023/01/30 11:02:58;;;;;;;2.90;2.47;;;3.30;99.90;;;;;;4952461;29;20211;-65
2023/01/30 11:05:27;;;;;;;2.22;1.60;;;3.40;99.90;;;;;;4952014;29;20651;-65
2023/01/30 11:07:54;;;;;;;2.00;1.80;;;3.40;99.90;;;;;;4952270;29;20208;-65
2023/01/30 11:10:23;;;;;;;2.92;2.10;;;3.40;99.90;;;;;;4951592;29;20220;-65
2023/01/30 11:12:53;;;;;;;2.13;1.70;;;3.50;99.90;;;;;;4951986;29;20211;-65
2023/01/30 11:15:23;;;;;;;3.25;1.80;;;3.40;99.90;;;;;;4952644;29;20232;-65
2023/01/30 11:17:51;;;;;;;4.88;2.50;;;3.30;99.90;;;;;;4951909;29;20212;-66
2023/01/30 11:20:20;;;;;;;2.22;1.95;;;3.20;99.90;;;;;;4952385;29;20208;-65
2023/01/30 11:22:49;;;;;;;3.53;2.55;;;3.10;99.90;;;;;;4951667;29;20227;-65
2023/01/30 11:25:18;;;;;;;2.75;1.83;;;3.00;99.90;;;;;;4952253;29;20235;-65
2023/01/30 11:27:54;;;;;;;3.35;2.20;;;3.00;99.90;;;;;;4952564;29;20215;-65
2023/01/30 11:30:26;;;;;;;3.45;2.35;;;3.00;99.90;;;;;;4951428;29;20268;-65
2023/01/30 11:33:07;;;;;;;2.88;1.95;;;3.00;99.90;;;;;;4951987;29;20215;-65
2023/01/30 11:35:41;;;;;;;2.10;1.85;;;2.90;99.90;;;;;;4951822;29;20645;-64
2023/01/30 11:38:20;;;;;;;2.97;1.80;;;2.80;99.90;;;;;;4952640;29;20204;-65
2023/01/30 11:40:47;;;;;;;3.63;2.88;;;2.80;99.90;;;;;;4952194;29;20231;-65
2023/01/30 11:43:15;;;;;;;3.25;2.92;;;2.70;99.90;;;;;;4951633;29;20692;-65
2023/01/30 11:45:44;;;;;;;2.25;1.70;;;2.70;99.90;;;;;;4951765;29;20235;-66
2023/01/30 11:48:18;;;;;;;2.83;2.20;;;2.70;99.90;;;;;;4951294;29;20200;-65
2023/01/30 11:50:49;;;;;;;2.63;2.22;;;2.70;99.90;;;;;;4951248;29;20323;-65
2023/01/30 11:53:29;;;;;;;3.58;2.83;;;2.70;99.90;;;;;;4951940;29;20215;-65
2023/01/30 11:56:00;;;;;;;2.40;1.90;;;2.70;99.90;;;;;;4951422;29;20234;-65
2023/01/30 11:58:32;;;;;;;2.88;2.55;;;2.60;99.90;;;;;;4951089;29;20208;-65
2023/01/30 12:00:59;;;;;;;3.47;2.67;;;2.60;99.90;;;;;;4951378;29;20208;-63
2023/01/30 12:03:28;;;;;;;2.10;1.90;;;2.50;99.90;;;;;;4951629;29;20212;-64
2023/01/30 12:05:57;;;;;;;2.58;2.00;;;2.40;99.90;;;;;;4951358;29;20228;-65
2023/01/30 12:08:26;;;;;;;2.63;2.13;;;2.30;99.90;;;;;;4950558;28;20213;-65
2023/01/30 12:10:57;;;;;;;2.70;2.35;;;2.30;99.90;;;;;;4951236;29;20220;-65
2023/01/30 12:13:30;;;;;;;1.88;1.63;;;2.20;99.90;;;;;;4951281;29;20307;-65
2023/01/30 12:16:12;;;;;;;2.08;1.63;;;2.20;99.90;;;;;;4951422;29;20248;-65
2023/01/30 12:18:46;;;;;;;3.13;2.33;;;2.10;99.90;;;;;;4950809;29;20316;-65
2023/01/30 12:21:20;;;;;;;2.28;2.00;;;2.10;99.90;;;;;;4951318;29;20201;-65
2023/01/30 12:23:56;;;;;;;4.05;2.55;;;2.10;99.90;;;;;;4951432;29;20611;-66
2023/01/30 12:26:29;;;;;;;4.35;2.20;;;2.30;99.90;;;;;;4950850;29;20790;-65
2023/01/30 12:29:02;;;;;;;4.72;2.78;;;2.30;99.90;;;;;;4950749;29;20216;-65
2023/01/30 12:31:35;;;;;;;4.18;2.50;;;2.30;99.90;;;;;;4950794;29;20224;-65
2023/01/30 12:34:03;;;;;;;3.55;2.47;;;2.20;99.90;;;;;;4951163;29;20208;-65
2023/01/30 12:36:41;;;;;;;2.50;2.25;;;2.10;99.90;;;;;;4950699;29;20311;-65
2023/01/30 12:39:23;;;;;;;3.10;2.60;;;2.10;99.90;;;;;;4950143;29;20207;-66
2023/01/30 12:42:19;;;;;;;4.22;2.63;;;2.10;99.90;;;;;;4951711;29;20193;-65
2023/01/30 12:45:01;;;;;;;3.92;1.88;;;2.10;99.90;;;;;;4949536;29;20216;-65
2023/01/30 12:47:52;;;;;;;3.28;2.45;;;2.10;99.90;;;;;;5013663;23;20247;-65
2023/01/30 12:50:33;;;;;;;2.80;2.13;;;2.10;99.90;;;;;;4951514;29;20227;-66
2023/01/30 12:53:17;;;;;;;3.28;2.92;;;2.10;99.90;;;;;;4953305;29;20204;-66
2023/01/30 12:55:53;;;;;;;4.80;2.72;;;2.20;99.90;;;;;;4953101;29;20580;-65
2023/01/30 12:58:25;;;;;;;4.35;3.20;;;2.20;99.90;;;;;;4952504;29;20207;-65
2023/01/30 13:01:10;;;;;;;3.70;2.42;;;2.20;99.90;;;;;;4952977;29;20571;-65
2023/01/30 13:03:43;;;;;;;2.30;2.10;;;2.20;99.90;;;;;;4953557;29;20208;-65
2023/01/30 13:06:31;;;;;;;3.60;2.47;;;2.20;99.90;;;;;;4953146;29;20221;-66
2023/01/30 13:09:13;;;;;;;3.10;2.72;;;2.20;99.90;;;;;;4952128;29;20200;-65
2023/01/30 13:11:52;;;;;;;2.60;2.15;;;2.10;99.90;;;;;;4952591;29;20247;-65
2023/01/30 13:14:26;;;;;;;3.63;2.90;;;2.10;99.90;;;;;;4952150;29;20204;-65